sensor_id;sensor_type;location;lat;lon;timestamp;P1;durP1;ratioP1;P2;durP2;ratioP2
72235;SDS011;60146;52.498;13.462;2023-05-29T00:00:16;8.57;;;2.70;;
72235;SDS011;60146;52.498;13.462;2023-05-29T00:02:43;7.50;;;2.40;;
72235;SDS011;60146;52.498;13.462;2023-05-29T00:05:11;7.07;;;2.27;;
72235;SDS011;60146;52.498;13.462;2023-05-29T00:07:37;7.17;;;2.40;;
72235;SDS011;60146;52.498;13.462;2023-05-29T00:10:04;10.80;;;2.30;;
72235;SDS011;60146;52.498;13.462;2023-05-29T00:12:39;6.33;;;2.00;;
72235;SDS011;60146;52.498;13.462;2023-05-29T00:15:08;10.37;;;2.67;;
72235;SDS011;60146;52.498;13.462;2023-05-29T00:17:37;5.83;;;2.30;;
72235;SDS011;60146;52.498;13.462;2023-05-29T00:20:04;8.00;;;2.37;;
72235;SDS011;60146;52.498;13.462;2023-05-29T00:22:39;7.40;;;2.47;;
72235;SDS011;60146;52.498;13.462;2023-05-29T00:25:05;7.43;;;2.70;;
72235;SDS011;60146;52.498;13.462;2023-05-29T00:27:31;8.20;;;2.60;;
72235;SDS011;60146;52.498;13.462;2023-05-29T00:29:58;8.60;;;2.43;;
72235;SDS011;60146;52.498;13.462;2023-05-29T00:32:23;6.40;;;2.47;;
72235;SDS011;60146;52.498;13.462;2023-05-29T00:34:49;7.33;;;2.90;;
72235;SDS011;60146;52.498;13.462;2023-05-29T00:37:15;6.97;;;2.80;;
72235;SDS011;60146;52.498;13.462;2023-05-29T00:39:40;6.67;;;3.07;;
72235;SDS011;60146;52.498;13.462;2023-05-29T00:42:06;7.93;;;2.90;;
72235;SDS011;60146;52.498;13.462;2023-05-29T00:44:31;5.53;;;2.90;;
72235;SDS011;60146;52.498;13.462;2023-05-29T00:46:56;10.93;;;3.97;;
72235;SDS011;60146;52.498;13.462;2023-05-29T00:49:23;6.73;;;2.23;;
72235;SDS011;60146;52.498;13.462;2023-05-29T00:51:49;6.37;;;2.60;;
72235;SDS011;60146;52.498;13.462;2023-05-29T00:54:17;6.13;;;2.40;;
72235;SDS011;60146;52.498;13.462;2023-05-29T00:56:46;5.68;;;2.30;;
72235;SDS011;60146;52.498;13.462;2023-05-29T00:59:12;7.17;;;2.50;;
72235;SDS011;60146;52.498;13.462;2023-05-29T01:01:43;7.93;;;2.53;;
72235;SDS011;60146;52.498;13.462;2023-05-29T01:04:09;5.90;;;2.40;;
72235;SDS011;60146;52.498;13.462;2023-05-29T01:06:38;6.37;;;2.70;;
72235;SDS011;60146;52.498;13.462;2023-05-29T01:09:04;6.67;;;2.30;;
72235;SDS011;60146;52.498;13.462;2023-05-29T01:14:08;11.30;;;2.80;;
72235;SDS011;60146;52.498;13.462;2023-05-29T01:16:48;7.53;;;2.90;;
72235;SDS011;60146;52.498;13.462;2023-05-29T01:25:21;6.63;;;2.40;;
72235;SDS011;60146;52.498;13.462;2023-05-29T01:27:52;6.37;;;2.30;;
72235;SDS011;60146;52.498;13.462;2023-05-29T01:30:20;8.00;;;2.60;;
72235;SDS011;60146;52.498;13.462;2023-05-29T01:32:46;8.40;;;2.60;;
72235;SDS011;60146;52.498;13.462;2023-05-29T01:35:20;8.07;;;2.43;;
72235;SDS011;60146;52.498;13.462;2023-05-29T01:37:46;6.53;;;2.50;;
72235;SDS011;60146;52.498;13.462;2023-05-29T01:40:11;8.50;;;2.50;;
72235;SDS011;60146;52.498;13.462;2023-05-29T01:42:37;8.83;;;2.20;;
72235;SDS011;60146;52.498;13.462;2023-05-29T01:45:05;5.30;;;2.90;;
72235;SDS011;60146;52.498;13.462;2023-05-29T01:47:31;6.57;;;2.53;;
72235;SDS011;60146;52.498;13.462;2023-05-29T01:49:57;6.23;;;2.47;;
72235;SDS011;60146;52.498;13.462;2023-05-29T01:52:23;6.17;;;2.53;;
72235;SDS011;60146;52.498;13.462;2023-05-29T01:54:49;7.67;;;2.40;;
72235;SDS011;60146;52.498;13.462;2023-05-29T01:57:15;7.53;;;2.70;;
72235;SDS011;60146;52.498;13.462;2023-05-29T01:59:41;7.70;;;2.30;;
72235;SDS011;60146;52.498;13.462;2023-05-29T02:02:07;8.87;;;2.60;;
72235;SDS011;60146;52.498;13.462;2023-05-29T02:04:33;8.03;;;2.77;;
72235;SDS011;60146;52.498;13.462;2023-05-29T02:06:58;6.47;;;2.47;;
72235;SDS011;60146;52.498;13.462;2023-05-29T02:09:24;7.37;;;2.50;;
72235;SDS011;60146;52.498;13.462;2023-05-29T02:11:50;5.50;;;2.57;;
72235;SDS011;60146;52.498;13.462;2023-05-29T02:14:15;8.60;;;2.30;;
72235;SDS011;60146;52.498;13.462;2023-05-29T02:16:40;8.60;;;2.50;;
72235;SDS011;60146;52.498;13.462;2023-05-29T02:19:06;8.53;;;3.33;;
72235;SDS011;60146;52.498;13.462;2023-05-29T02:21:31;4.70;;;2.90;;
72235;SDS011;60146;52.498;13.462;2023-05-29T02:23:57;7.43;;;2.70;;
72235;SDS011;60146;52.498;13.462;2023-05-29T02:26:22;7.47;;;2.63;;
72235;SDS011;60146;52.498;13.462;2023-05-29T02:28:48;9.57;;;2.43;;
72235;SDS011;60146;52.498;13.462;2023-05-29T02:31:13;9.17;;;2.70;;
72235;SDS011;60146;52.498;13.462;2023-05-29T02:33:38;8.03;;;2.33;;
72235;SDS011;60146;52.498;13.462;2023-05-29T02:36:06;8.60;;;2.60;;
72235;SDS011;60146;52.498;13.462;2023-05-29T02:38:35;6.40;;;2.67;;
72235;SDS011;60146;52.498;13.462;2023-05-29T02:41:01;7.73;;;2.67;;
72235;SDS011;60146;52.498;13.462;2023-05-29T02:43:26;5.60;;;2.40;;
72235;SDS011;60146;52.498;13.462;2023-05-29T02:45:52;9.43;;;2.80;;
72235;SDS011;60146;52.498;13.462;2023-05-29T02:48:17;9.40;;;3.60;;
72235;SDS011;60146;52.498;13.462;2023-05-29T02:50:42;8.70;;;2.30;;
72235;SDS011;60146;52.498;13.462;2023-05-29T02:53:15;5.23;;;2.40;;
72235;SDS011;60146;52.498;13.462;2023-05-29T02:55:41;7.93;;;2.50;;
72235;SDS011;60146;52.498;13.462;2023-05-29T02:58:07;5.87;;;2.40;;
72235;SDS011;60146;52.498;13.462;2023-05-29T03:00:33;11.23;;;2.57;;
72235;SDS011;60146;52.498;13.462;2023-05-29T03:02:58;9.03;;;2.70;;
72235;SDS011;60146;52.498;13.462;2023-05-29T03:05:24;6.03;;;2.50;;
72235;SDS011;60146;52.498;13.462;2023-05-29T03:07:50;5.50;;;2.50;;
72235;SDS011;60146;52.498;13.462;2023-05-29T03:10:16;6.93;;;2.40;;
72235;SDS011;60146;52.498;13.462;2023-05-29T03:12:42;8.27;;;2.80;;
72235;SDS011;60146;52.498;13.462;2023-05-29T03:15:08;7.70;;;2.47;;
72235;SDS011;60146;52.498;13.462;2023-05-29T03:17:34;5.77;;;2.87;;
72235;SDS011;60146;52.498;13.462;2023-05-29T03:20:02;6.53;;;2.90;;
72235;SDS011;60146;52.498;13.462;2023-05-29T03:22:30;8.53;;;2.77;;
72235;SDS011;60146;52.498;13.462;2023-05-29T03:24:56;8.60;;;2.83;;
72235;SDS011;60146;52.498;13.462;2023-05-29T03:27:21;6.23;;;3.40;;
72235;SDS011;60146;52.498;13.462;2023-05-29T03:29:46;5.30;;;2.43;;
72235;SDS011;60146;52.498;13.462;2023-05-29T03:32:12;6.20;;;2.90;;
72235;SDS011;60146;52.498;13.462;2023-05-29T03:34:37;8.33;;;2.80;;
72235;SDS011;60146;52.498;13.462;2023-05-29T03:37:03;5.97;;;2.73;;
72235;SDS011;60146;52.498;13.462;2023-05-29T03:39:28;7.50;;;2.90;;
72235;SDS011;60146;52.498;13.462;2023-05-29T03:41:54;8.77;;;3.00;;
72235;SDS011;60146;52.498;13.462;2023-05-29T03:44:19;12.00;;;3.27;;
72235;SDS011;60146;52.498;13.462;2023-05-29T03:46:45;7.13;;;2.50;;
72235;SDS011;60146;52.498;13.462;2023-05-29T03:49:10;7.97;;;3.20;;
72235;SDS011;60146;52.498;13.462;2023-05-29T03:51:36;11.17;;;2.83;;
72235;SDS011;60146;52.498;13.462;2023-05-29T03:54:01;8.37;;;2.90;;
72235;SDS011;60146;52.498;13.462;2023-05-29T03:56:27;7.83;;;2.83;;
72235;SDS011;60146;52.498;13.462;2023-05-29T03:58:52;10.43;;;2.87;;
72235;SDS011;60146;52.498;13.462;2023-05-29T04:01:18;6.47;;;2.90;;
72235;SDS011;60146;52.498;13.462;2023-05-29T04:03:43;6.23;;;2.73;;
72235;SDS011;60146;52.498;13.462;2023-05-29T04:06:10;6.13;;;2.60;;
72235;SDS011;60146;52.498;13.462;2023-05-29T04:08:36;7.00;;;3.00;;
72235;SDS011;60146;52.498;13.462;2023-05-29T04:11:02;8.03;;;2.90;;
72235;SDS011;60146;52.498;13.462;2023-05-29T04:13:28;6.30;;;2.60;;
72235;SDS011;60146;52.498;13.462;2023-05-29T04:15:54;7.67;;;3.20;;
72235;SDS011;60146;52.498;13.462;2023-05-29T04:18:20;5.73;;;2.50;;
72235;SDS011;60146;52.498;13.462;2023-05-29T04:20:46;7.00;;;2.33;;
72235;SDS011;60146;52.498;13.462;2023-05-29T04:23:12;8.13;;;2.57;;
72235;SDS011;60146;52.498;13.462;2023-05-29T04:25:38;8.27;;;2.90;;
72235;SDS011;60146;52.498;13.462;2023-05-29T04:28:03;8.10;;;2.67;;
72235;SDS011;60146;52.498;13.462;2023-05-29T04:30:28;7.60;;;2.67;;
72235;SDS011;60146;52.498;13.462;2023-05-29T04:32:54;5.20;;;2.30;;
72235;SDS011;60146;52.498;13.462;2023-05-29T04:35:20;6.13;;;2.30;;
72235;SDS011;60146;52.498;13.462;2023-05-29T04:37:46;4.47;;;2.37;;
72235;SDS011;60146;52.498;13.462;2023-05-29T04:40:12;8.77;;;2.67;;
72235;SDS011;60146;52.498;13.462;2023-05-29T04:45:09;6.43;;;2.40;;
72235;SDS011;60146;52.498;13.462;2023-05-29T04:47:38;6.10;;;2.53;;
72235;SDS011;60146;52.498;13.462;2023-05-29T04:50:11;8.70;;;2.78;;
72235;SDS011;60146;52.498;13.462;2023-05-29T04:52:38;6.65;;;2.40;;
72235;SDS011;60146;52.498;13.462;2023-05-29T04:55:03;6.57;;;2.40;;
72235;SDS011;60146;52.498;13.462;2023-05-29T04:57:30;7.40;;;2.77;;
72235;SDS011;60146;52.498;13.462;2023-05-29T04:59:55;5.60;;;2.30;;
72235;SDS011;60146;52.498;13.462;2023-05-29T05:02:21;5.23;;;2.40;;
72235;SDS011;60146;52.498;13.462;2023-05-29T05:04:46;3.87;;;2.20;;
72235;SDS011;60146;52.498;13.462;2023-05-29T05:07:12;5.93;;;2.17;;
72235;SDS011;60146;52.498;13.462;2023-05-29T05:09:38;5.47;;;2.10;;
72235;SDS011;60146;52.498;13.462;2023-05-29T05:12:03;11.63;;;2.63;;
72235;SDS011;60146;52.498;13.462;2023-05-29T05:14:29;4.23;;;2.03;;
72235;SDS011;60146;52.498;13.462;2023-05-29T05:16:54;4.90;;;2.10;;
72235;SDS011;60146;52.498;13.462;2023-05-29T05:19:20;3.60;;;2.00;;
72235;SDS011;60146;52.498;13.462;2023-05-29T05:21:45;6.57;;;2.10;;
72235;SDS011;60146;52.498;13.462;2023-05-29T05:24:11;5.50;;;1.93;;
72235;SDS011;60146;52.498;13.462;2023-05-29T05:26:36;6.63;;;2.00;;
72235;SDS011;60146;52.498;13.462;2023-05-29T05:29:02;3.17;;;1.80;;
72235;SDS011;60146;52.498;13.462;2023-05-29T05:31:27;4.23;;;1.93;;
72235;SDS011;60146;52.498;13.462;2023-05-29T05:33:53;8.13;;;2.13;;
72235;SDS011;60146;52.498;13.462;2023-05-29T05:36:18;4.43;;;1.90;;
72235;SDS011;60146;52.498;13.462;2023-05-29T05:38:44;4.03;;;1.80;;
72235;SDS011;60146;52.498;13.462;2023-05-29T05:41:09;4.93;;;1.70;;
72235;SDS011;60146;52.498;13.462;2023-05-29T05:43:35;3.97;;;1.97;;
72235;SDS011;60146;52.498;13.462;2023-05-29T05:46:00;4.60;;;1.70;;
72235;SDS011;60146;52.498;13.462;2023-05-29T05:48:25;4.60;;;1.90;;
72235;SDS011;60146;52.498;13.462;2023-05-29T05:50:51;4.37;;;1.60;;
72235;SDS011;60146;52.498;13.462;2023-05-29T05:53:16;5.60;;;1.77;;
72235;SDS011;60146;52.498;13.462;2023-05-29T05:55:42;8.90;;;2.37;;
72235;SDS011;60146;52.498;13.462;2023-05-29T05:58:08;3.80;;;1.80;;
72235;SDS011;60146;52.498;13.462;2023-05-29T06:00:33;3.43;;;1.70;;
72235;SDS011;60146;52.498;13.462;2023-05-29T06:02:58;3.67;;;1.83;;
72235;SDS011;60146;52.498;13.462;2023-05-29T06:05:25;5.43;;;1.77;;
72235;SDS011;60146;52.498;13.462;2023-05-29T06:07:50;4.97;;;1.83;;
72235;SDS011;60146;52.498;13.462;2023-05-29T06:10:16;3.07;;;1.97;;
72235;SDS011;60146;52.498;13.462;2023-05-29T06:12:41;3.30;;;1.97;;
72235;SDS011;60146;52.498;13.462;2023-05-29T06:15:06;3.87;;;1.80;;
72235;SDS011;60146;52.498;13.462;2023-05-29T06:17:32;3.57;;;1.70;;
72235;SDS011;60146;52.498;13.462;2023-05-29T06:19:58;3.50;;;1.70;;
72235;SDS011;60146;52.498;13.462;2023-05-29T06:22:23;3.40;;;1.70;;
72235;SDS011;60146;52.498;13.462;2023-05-29T06:24:49;3.07;;;1.50;;
72235;SDS011;60146;52.498;13.462;2023-05-29T06:27:14;3.00;;;1.53;;
72235;SDS011;60146;52.498;13.462;2023-05-29T06:29:39;5.07;;;1.80;;
72235;SDS011;60146;52.498;13.462;2023-05-29T06:32:05;3.73;;;1.50;;
72235;SDS011;60146;52.498;13.462;2023-05-29T06:34:31;4.77;;;1.57;;
72235;SDS011;60146;52.498;13.462;2023-05-29T06:36:56;3.67;;;1.57;;
72235;SDS011;60146;52.498;13.462;2023-05-29T06:39:21;2.97;;;1.50;;
72235;SDS011;60146;52.498;13.462;2023-05-29T06:41:47;4.07;;;1.80;;
72235;SDS011;60146;52.498;13.462;2023-05-29T06:44:12;7.07;;;2.13;;
72235;SDS011;60146;52.498;13.462;2023-05-29T06:46:37;3.13;;;1.60;;
72235;SDS011;60146;52.498;13.462;2023-05-29T06:49:03;4.93;;;1.90;;
72235;SDS011;60146;52.498;13.462;2023-05-29T06:51:28;4.67;;;1.70;;
72235;SDS011;60146;52.498;13.462;2023-05-29T06:53:54;3.07;;;1.70;;
72235;SDS011;60146;52.498;13.462;2023-05-29T06:56:20;4.47;;;1.47;;
72235;SDS011;60146;52.498;13.462;2023-05-29T06:58:46;4.80;;;1.50;;
72235;SDS011;60146;52.498;13.462;2023-05-29T07:01:11;2.90;;;1.43;;
72235;SDS011;60146;52.498;13.462;2023-05-29T07:03:37;4.73;;;1.37;;
72235;SDS011;60146;52.498;13.462;2023-05-29T07:06:02;5.60;;;1.70;;
72235;SDS011;60146;52.498;13.462;2023-05-29T07:08:28;3.30;;;1.70;;
72235;SDS011;60146;52.498;13.462;2023-05-29T07:10:54;2.90;;;1.50;;
72235;SDS011;60146;52.498;13.462;2023-05-29T07:13:19;7.97;;;1.77;;
72235;SDS011;60146;52.498;13.462;2023-05-29T07:15:45;2.83;;;1.43;;
72235;SDS011;60146;52.498;13.462;2023-05-29T07:18:10;2.30;;;1.40;;
72235;SDS011;60146;52.498;13.462;2023-05-29T07:20:36;7.20;;;1.80;;
72235;SDS011;60146;52.498;13.462;2023-05-29T07:23:01;3.38;;;1.40;;
72235;SDS011;60146;52.498;13.462;2023-05-29T07:25:27;2.38;;;1.42;;
72235;SDS011;60146;52.498;13.462;2023-05-29T07:27:52;2.30;;;1.20;;
72235;SDS011;60146;52.498;13.462;2023-05-29T07:30:18;3.03;;;1.30;;
72235;SDS011;60146;52.498;13.462;2023-05-29T07:32:43;4.88;;;1.45;;
72235;SDS011;60146;52.498;13.462;2023-05-29T07:35:09;1.95;;;1.17;;
72235;SDS011;60146;52.498;13.462;2023-05-29T07:37:34;2.67;;;1.30;;
72235;SDS011;60146;52.498;13.462;2023-05-29T07:40:00;3.38;;;1.50;;
72235;SDS011;60146;52.498;13.462;2023-05-29T07:42:26;4.55;;;1.70;;
72235;SDS011;60146;52.498;13.462;2023-05-29T07:44:51;3.40;;;1.35;;
72235;SDS011;60146;52.498;13.462;2023-05-29T07:47:17;2.55;;;1.40;;
72235;SDS011;60146;52.498;13.462;2023-05-29T07:49:42;4.05;;;1.80;;
72235;SDS011;60146;52.498;13.462;2023-05-29T07:52:07;4.03;;;1.40;;
72235;SDS011;60146;52.498;13.462;2023-05-29T07:54:33;4.38;;;1.33;;
72235;SDS011;60146;52.498;13.462;2023-05-29T07:56:59;5.75;;;1.58;;
72235;SDS011;60146;52.498;13.462;2023-05-29T07:59:25;2.08;;;1.30;;
72235;SDS011;60146;52.498;13.462;2023-05-29T08:01:50;4.03;;;1.58;;
72235;SDS011;60146;52.498;13.462;2023-05-29T08:04:16;3.33;;;1.20;;
72235;SDS011;60146;52.498;13.462;2023-05-29T08:06:41;3.13;;;1.23;;
72235;SDS011;60146;52.498;13.462;2023-05-29T08:09:08;3.05;;;1.40;;
72235;SDS011;60146;52.498;13.462;2023-05-29T08:11:34;3.42;;;1.60;;
72235;SDS011;60146;52.498;13.462;2023-05-29T08:14:00;3.28;;;1.63;;
72235;SDS011;60146;52.498;13.462;2023-05-29T08:16:26;3.45;;;1.48;;
72235;SDS011;60146;52.498;13.462;2023-05-29T08:18:52;3.28;;;1.42;;
72235;SDS011;60146;52.498;13.462;2023-05-29T08:21:17;4.22;;;1.60;;
72235;SDS011;60146;52.498;13.462;2023-05-29T08:23:43;3.55;;;1.55;;
72235;SDS011;60146;52.498;13.462;2023-05-29T08:26:09;2.85;;;1.67;;
72235;SDS011;60146;52.498;13.462;2023-05-29T08:28:34;3.30;;;1.48;;
72235;SDS011;60146;52.498;13.462;2023-05-29T08:30:59;6.28;;;2.20;;
72235;SDS011;60146;52.498;13.462;2023-05-29T08:33:25;2.53;;;1.40;;
72235;SDS011;60146;52.498;13.462;2023-05-29T08:35:50;4.00;;;1.77;;
72235;SDS011;60146;52.498;13.462;2023-05-29T08:38:16;2.80;;;1.50;;
72235;SDS011;60146;52.498;13.462;2023-05-29T08:40:41;3.72;;;1.40;;
72235;SDS011;60146;52.498;13.462;2023-05-29T08:43:14;3.65;;;1.90;;
72235;SDS011;60146;52.498;13.462;2023-05-29T08:45:44;4.60;;;1.77;;
72235;SDS011;60146;52.498;13.462;2023-05-29T08:48:10;2.22;;;1.60;;
72235;SDS011;60146;52.498;13.462;2023-05-29T08:50:45;3.97;;;1.60;;
72235;SDS011;60146;52.498;13.462;2023-05-29T08:53:12;5.05;;;1.98;;
72235;SDS011;60146;52.498;13.462;2023-05-29T08:55:38;2.78;;;1.55;;
72235;SDS011;60146;52.498;13.462;2023-05-29T08:58:04;3.30;;;1.80;;
72235;SDS011;60146;52.498;13.462;2023-05-29T09:00:30;3.47;;;1.83;;
72235;SDS011;60146;52.498;13.462;2023-05-29T09:02:56;4.45;;;1.77;;
72235;SDS011;60146;52.498;13.462;2023-05-29T09:05:24;3.58;;;1.60;;
72235;SDS011;60146;52.498;13.462;2023-05-29T09:07:52;5.30;;;1.90;;
72235;SDS011;60146;52.498;13.462;2023-05-29T09:10:18;5.38;;;2.00;;
72235;SDS011;60146;52.498;13.462;2023-05-29T09:12:44;5.63;;;1.90;;
72235;SDS011;60146;52.498;13.462;2023-05-29T09:15:16;2.33;;;1.77;;
72235;SDS011;60146;52.498;13.462;2023-05-29T09:17:43;3.28;;;1.60;;
72235;SDS011;60146;52.498;13.462;2023-05-29T09:20:15;4.93;;;1.92;;
72235;SDS011;60146;52.498;13.462;2023-05-29T09:22:44;2.70;;;1.67;;
72235;SDS011;60146;52.498;13.462;2023-05-29T09:25:17;3.60;;;1.70;;
72235;SDS011;60146;52.498;13.462;2023-05-29T09:27:46;2.90;;;1.48;;
72235;SDS011;60146;52.498;13.462;2023-05-29T09:30:11;3.85;;;1.95;;
72235;SDS011;60146;52.498;13.462;2023-05-29T09:32:56;4.03;;;2.00;;
72235;SDS011;60146;52.498;13.462;2023-05-29T09:35:21;3.47;;;1.65;;
72235;SDS011;60146;52.498;13.462;2023-05-29T09:37:46;5.38;;;1.70;;
72235;SDS011;60146;52.498;13.462;2023-05-29T09:40:12;2.55;;;1.50;;
72235;SDS011;60146;52.498;13.462;2023-05-29T09:42:37;3.50;;;1.90;;
72235;SDS011;60146;52.498;13.462;2023-05-29T09:45:03;6.00;;;1.92;;
72235;SDS011;60146;52.498;13.462;2023-05-29T09:47:29;2.45;;;1.80;;
72235;SDS011;60146;52.498;13.462;2023-05-29T09:49:58;4.47;;;1.98;;
72235;SDS011;60146;52.498;13.462;2023-05-29T09:52:25;4.30;;;2.13;;
72235;SDS011;60146;52.498;13.462;2023-05-29T09:54:55;4.80;;;1.90;;
72235;SDS011;60146;52.498;13.462;2023-05-29T09:57:21;5.28;;;2.00;;
72235;SDS011;60146;52.498;13.462;2023-05-29T09:59:48;4.32;;;2.40;;
72235;SDS011;60146;52.498;13.462;2023-05-29T10:02:16;3.70;;;2.08;;
72235;SDS011;60146;52.498;13.462;2023-05-29T10:04:42;5.20;;;2.05;;
72235;SDS011;60146;52.498;13.462;2023-05-29T10:07:20;3.45;;;1.80;;
72235;SDS011;60146;52.498;13.462;2023-05-29T10:09:52;7.15;;;2.00;;
72235;SDS011;60146;52.498;13.462;2023-05-29T10:12:23;3.38;;;1.83;;
72235;SDS011;60146;52.498;13.462;2023-05-29T10:14:51;4.18;;;2.17;;
72235;SDS011;60146;52.498;13.462;2023-05-29T10:17:33;4.85;;;2.65;;
72235;SDS011;60146;52.498;13.462;2023-05-29T10:20:00;3.00;;;2.05;;
72235;SDS011;60146;52.498;13.462;2023-05-29T10:22:27;3.45;;;1.80;;
72235;SDS011;60146;52.498;13.462;2023-05-29T10:24:54;3.30;;;1.77;;
72235;SDS011;60146;52.498;13.462;2023-05-29T10:27:21;2.60;;;1.88;;
72235;SDS011;60146;52.498;13.462;2023-05-29T10:29:48;3.90;;;2.20;;
72235;SDS011;60146;52.498;13.462;2023-05-29T10:35:05;2.70;;;1.70;;
72235;SDS011;60146;52.498;13.462;2023-05-29T10:38:09;4.70;;;1.90;;
72235;SDS011;60146;52.498;13.462;2023-05-29T10:40:36;2.85;;;1.90;;
72235;SDS011;60146;52.498;13.462;2023-05-29T10:43:02;4.07;;;1.80;;
72235;SDS011;60146;52.498;13.462;2023-05-29T10:50:40;2.85;;;1.58;;
72235;SDS011;60146;52.498;13.462;2023-05-29T10:53:07;3.67;;;1.92;;
72235;SDS011;60146;52.498;13.462;2023-05-29T10:55:38;5.13;;;1.90;;
72235;SDS011;60146;52.498;13.462;2023-05-29T10:58:05;3.30;;;2.00;;
72235;SDS011;60146;52.498;13.462;2023-05-29T11:00:31;5.35;;;1.67;;
72235;SDS011;60146;52.498;13.462;2023-05-29T11:02:56;2.42;;;1.70;;
72235;SDS011;60146;52.498;13.462;2023-05-29T11:05:22;3.40;;;1.90;;
72235;SDS011;60146;52.498;13.462;2023-05-29T11:07:53;7.80;;;2.00;;
72235;SDS011;60146;52.498;13.462;2023-05-29T11:13:22;3.67;;;2.03;;
72235;SDS011;60146;52.498;13.462;2023-05-29T11:18:30;3.33;;;1.88;;
72235;SDS011;60146;52.498;13.462;2023-05-29T11:21:00;3.97;;;1.77;;
72235;SDS011;60146;52.498;13.462;2023-05-29T11:23:31;5.18;;;2.17;;
72235;SDS011;60146;52.498;13.462;2023-05-29T11:25:56;4.60;;;1.88;;
72235;SDS011;60146;52.498;13.462;2023-05-29T11:28:24;3.05;;;1.75;;
72235;SDS011;60146;52.498;13.462;2023-05-29T11:30:49;4.30;;;2.13;;
72235;SDS011;60146;52.498;13.462;2023-05-29T11:33:26;2.40;;;1.80;;
72235;SDS011;60146;52.498;13.462;2023-05-29T11:35:55;3.88;;;1.80;;
72235;SDS011;60146;52.498;13.462;2023-05-29T11:38:22;3.63;;;1.70;;
72235;SDS011;60146;52.498;13.462;2023-05-29T11:40:49;3.42;;;1.70;;
72235;SDS011;60146;52.498;13.462;2023-05-29T11:43:17;3.53;;;1.90;;
72235;SDS011;60146;52.498;13.462;2023-05-29T11:45:43;4.70;;;1.85;;
72235;SDS011;60146;52.498;13.462;2023-05-29T11:48:08;3.30;;;1.80;;
72235;SDS011;60146;52.498;13.462;2023-05-29T11:50:34;2.92;;;1.80;;
72235;SDS011;60146;52.498;13.462;2023-05-29T11:53:01;2.90;;;1.88;;
72235;SDS011;60146;52.498;13.462;2023-05-29T11:55:27;7.38;;;1.70;;
72235;SDS011;60146;52.498;13.462;2023-05-29T11:57:59;5.20;;;1.95;;
72235;SDS011;60146;52.498;13.462;2023-05-29T12:00:28;2.88;;;1.50;;
72235;SDS011;60146;52.498;13.462;2023-05-29T12:02:57;4.32;;;1.75;;
72235;SDS011;60146;52.498;13.462;2023-05-29T12:05:23;5.40;;;1.83;;
72235;SDS011;60146;52.498;13.462;2023-05-29T12:07:52;3.53;;;1.90;;
72235;SDS011;60146;52.498;13.462;2023-05-29T12:10:21;3.45;;;1.88;;
72235;SDS011;60146;52.498;13.462;2023-05-29T12:12:50;3.72;;;1.80;;
72235;SDS011;60146;52.498;13.462;2023-05-29T12:15:17;4.53;;;2.17;;
72235;SDS011;60146;52.498;13.462;2023-05-29T12:17:44;2.75;;;1.67;;
72235;SDS011;60146;52.498;13.462;2023-05-29T12:20:10;3.92;;;1.85;;
72235;SDS011;60146;52.498;13.462;2023-05-29T12:22:37;3.17;;;1.73;;
72235;SDS011;60146;52.498;13.462;2023-05-29T12:25:10;3.78;;;1.85;;
72235;SDS011;60146;52.498;13.462;2023-05-29T12:27:37;3.08;;;1.98;;
72235;SDS011;60146;52.498;13.462;2023-05-29T12:30:11;4.82;;;2.10;;
72235;SDS011;60146;52.498;13.462;2023-05-29T12:32:46;3.92;;;2.13;;
72235;SDS011;60146;52.498;13.462;2023-05-29T12:37:48;3.45;;;2.20;;
72235;SDS011;60146;52.498;13.462;2023-05-29T12:40:24;4.13;;;1.98;;
72235;SDS011;60146;52.498;13.462;2023-05-29T12:42:57;3.28;;;1.92;;
72235;SDS011;60146;52.498;13.462;2023-05-29T12:45:27;4.10;;;2.00;;
72235;SDS011;60146;52.498;13.462;2023-05-29T12:47:57;3.30;;;1.83;;
72235;SDS011;60146;52.498;13.462;2023-05-29T12:50:27;6.22;;;1.98;;
72235;SDS011;60146;52.498;13.462;2023-05-29T12:55:30;4.22;;;1.90;;
72235;SDS011;60146;52.498;13.462;2023-05-29T12:58:10;4.65;;;1.77;;
72235;SDS011;60146;52.498;13.462;2023-05-29T13:00:37;4.28;;;1.83;;
72235;SDS011;60146;52.498;13.462;2023-05-29T13:03:04;4.85;;;1.73;;
72235;SDS011;60146;52.498;13.462;2023-05-29T13:05:29;4.88;;;1.65;;
72235;SDS011;60146;52.498;13.462;2023-05-29T13:07:56;6.43;;;2.55;;
72235;SDS011;60146;52.498;13.462;2023-05-29T13:10:22;4.65;;;1.92;;
72235;SDS011;60146;52.498;13.462;2023-05-29T13:12:54;3.47;;;1.90;;
72235;SDS011;60146;52.498;13.462;2023-05-29T13:15:26;5.05;;;1.70;;
72235;SDS011;60146;52.498;13.462;2023-05-29T13:17:51;3.90;;;1.70;;
72235;SDS011;60146;52.498;13.462;2023-05-29T13:20:17;3.15;;;1.50;;
72235;SDS011;60146;52.498;13.462;2023-05-29T13:22:44;5.68;;;2.10;;
72235;SDS011;60146;52.498;13.462;2023-05-29T13:25:11;3.90;;;1.90;;
72235;SDS011;60146;52.498;13.462;2023-05-29T13:27:45;3.90;;;1.95;;
72235;SDS011;60146;52.498;13.462;2023-05-29T13:30:13;3.08;;;1.80;;
72235;SDS011;60146;52.498;13.462;2023-05-29T13:32:40;3.17;;;1.90;;
72235;SDS011;60146;52.498;13.462;2023-05-29T13:35:06;3.85;;;2.05;;
72235;SDS011;60146;52.498;13.462;2023-05-29T13:37:32;6.40;;;2.10;;
72235;SDS011;60146;52.498;13.462;2023-05-29T13:39:57;3.60;;;1.88;;
72235;SDS011;60146;52.498;13.462;2023-05-29T13:42:23;3.97;;;1.75;;
72235;SDS011;60146;52.498;13.462;2023-05-29T13:44:49;3.95;;;1.85;;
72235;SDS011;60146;52.498;13.462;2023-05-29T13:47:14;4.55;;;1.92;;
72235;SDS011;60146;52.498;13.462;2023-05-29T13:49:40;2.42;;;1.90;;
72235;SDS011;60146;52.498;13.462;2023-05-29T13:52:06;3.28;;;1.98;;
72235;SDS011;60146;52.498;13.462;2023-05-29T13:54:31;3.20;;;1.90;;
72235;SDS011;60146;52.498;13.462;2023-05-29T13:57:01;3.50;;;1.92;;
72235;SDS011;60146;52.498;13.462;2023-05-29T13:59:31;3.92;;;2.17;;
72235;SDS011;60146;52.498;13.462;2023-05-29T14:01:57;4.07;;;1.70;;
72235;SDS011;60146;52.498;13.462;2023-05-29T14:04:23;5.57;;;2.00;;
72235;SDS011;60146;52.498;13.462;2023-05-29T14:06:48;5.78;;;1.80;;
72235;SDS011;60146;52.498;13.462;2023-05-29T14:09:22;5.20;;;2.08;;
72235;SDS011;60146;52.498;13.462;2023-05-29T14:11:55;3.47;;;1.70;;
72235;SDS011;60146;52.498;13.462;2023-05-29T14:14:21;4.40;;;1.80;;
72235;SDS011;60146;52.498;13.462;2023-05-29T14:16:47;4.20;;;1.55;;
72235;SDS011;60146;52.498;13.462;2023-05-29T14:19:14;4.82;;;2.00;;
72235;SDS011;60146;52.498;13.462;2023-05-29T14:21:40;4.65;;;1.63;;
72235;SDS011;60146;52.498;13.462;2023-05-29T14:24:05;4.00;;;1.75;;
72235;SDS011;60146;52.498;13.462;2023-05-29T14:26:32;5.25;;;1.80;;
72235;SDS011;60146;52.498;13.462;2023-05-29T14:28:57;5.35;;;2.22;;
72235;SDS011;60146;52.498;13.462;2023-05-29T14:31:23;7.95;;;3.00;;
72235;SDS011;60146;52.498;13.462;2023-05-29T14:33:48;4.25;;;1.90;;
72235;SDS011;60146;52.498;13.462;2023-05-29T14:39:11;4.03;;;1.92;;
72235;SDS011;60146;52.498;13.462;2023-05-29T14:41:37;7.10;;;2.90;;
72235;SDS011;60146;52.498;13.462;2023-05-29T14:44:03;6.75;;;2.20;;
72235;SDS011;60146;52.498;13.462;2023-05-29T14:46:29;6.25;;;2.03;;
72235;SDS011;60146;52.498;13.462;2023-05-29T14:49:00;12.00;;;2.05;;
72235;SDS011;60146;52.498;13.462;2023-05-29T14:51:25;7.43;;;2.85;;
72235;SDS011;60146;52.498;13.462;2023-05-29T14:53:51;7.00;;;2.75;;
72235;SDS011;60146;52.498;13.462;2023-05-29T14:56:17;5.85;;;2.20;;
72235;SDS011;60146;52.498;13.462;2023-05-29T14:58:45;5.70;;;1.75;;
72235;SDS011;60146;52.498;13.462;2023-05-29T15:01:13;3.60;;;1.73;;
72235;SDS011;60146;52.498;13.462;2023-05-29T15:03:39;6.45;;;1.80;;